Pilot Mound, Iowa
Current Conditions -  °F | °C
As of 11:35 AM on Thursday 23 Oct 2014 (Local Time) from KBNW Reporting Station
Overcast Overcast  
Wind Chill: 61°   Ceiling: 800
Heat Index: 61°   Visibility: 9mi
Dew Point: 59°   Wind: 5mph
Humidity: 94%   Direction: 280°W
Pressure: 30.04"   Gusts: NA
Location:  42.16°N, 94.02°W
Report Text: KBNW 231635Z AUTO 28004KT 9SM BKN008 OVC014 16/15 A3004 RMK AO2
Loading
Personal Weather Stations






























Interactive Weather Map
Tropical Storm Tracking
New forecast layout! Learn more

10-Day Weather Forecast

Advertisements
Track Severe Weather on mobile